Aviation Digital Data Service (ADDS)

Output produced by TAFs form (0854 UTC 16 July 2018)
found at http://www.aviationweather.gov/adds/tafs/
 
METAR text: OPKC 160825Z 23007KT 5000 HZ SCT020 BKN030 33/23 Q0997 NOSIG
Conditions at: OPKC (KARACHI INTL ARP, PK) observed 0825 UTC 16 July 2018
Temperature: 33.0°C (91°F)
Dewpoint: 23.0°C (73°F) [RH = 56%]
Pressure (altimeter): 29.44 inches Hg (997.0 mb)
Winds: from the SW (230 degrees) at 8 MPH (7 knots; 3.6 m/s)
Visibility: 3 miles (5 km)
Ceiling: 3000 feet AGL
Clouds: scattered clouds at 2000 feet AGL
broken clouds at 3000 feet AGL
Weather: HZ  (haze)

Forecast for: OPKC (KARACHI INTL ARP, PK)
Text: TAF OPKC 160330Z 1606/1615 23005G15KT 6000 BKN025
Forecast period: 0600 to 1500 UTC 16 July 2018
Forecast type: FROM: standard forecast or significant change
Winds: from the SW (230 degrees) at 6 MPH (5 knots; 2.6 m/s)
gusting to 17 MPH (15 knots; 7.8 m/s)
Visibility: 4 miles (6 km)
Ceiling: 2500 feet AGL
Clouds: broken clouds at 2500 feet AGL
Weather: no significant weather forecast for this period